createdAt,value
2022-12-18T00:01:21.831Z,96786.69
2022-12-18T00:03:49.102Z,96788.81
2022-12-18T00:06:16.291Z,96794.84
2022-12-18T00:08:43.413Z,96797.78
2022-12-18T00:11:11.969Z,96806.75
2022-12-18T00:13:38.625Z,96816.41
2022-12-18T00:16:06.438Z,96826.06
2022-12-18T00:18:33.329Z,96824.16
2022-12-18T00:21:03.887Z,96834.03
2022-12-18T00:23:30.619Z,96835.13
2022-12-18T00:26:04.163Z,96846.44
2022-12-18T00:28:30.528Z,96857.13
2022-12-18T00:31:16.683Z,96863.25
2022-12-18T00:33:43.594Z,96854.50
2022-12-18T00:36:14.814Z,96867.22
2022-12-18T00:38:41.964Z,96872.19
2022-12-18T00:41:09.156Z,96875.97
2022-12-18T00:43:37.154Z,96886.41
2022-12-18T00:46:04.187Z,96887.03
2022-12-18T00:48:31.768Z,96881.44
2022-12-18T00:50:58.471Z,96885.47
2022-12-18T00:53:24.844Z,96904.69
2022-12-18T00:55:51.219Z,96898.66
2022-12-18T00:58:17.657Z,96897.63
2022-12-18T01:00:44.643Z,96906.44
2022-12-18T01:03:13.715Z,96910.38
2022-12-18T01:05:41.020Z,96906.75
2022-12-18T01:08:07.418Z,96912.34
2022-12-18T01:10:33.784Z,96922.63
2022-12-18T01:13:00.211Z,96920.66
2022-12-18T01:15:26.608Z,96928.56
2022-12-18T01:17:53.361Z,96926.47
2022-12-18T01:20:20.432Z,96933.53
2022-12-18T01:22:46.819Z,96933.53
2022-12-18T01:25:13.207Z,96930.19
2022-12-18T01:27:39.631Z,96940.03
2022-12-18T01:30:06.420Z,96935.31
2022-12-18T01:32:32.864Z,96937.66
2022-12-18T01:34:59.336Z,96941.19
2022-12-18T01:37:25.799Z,96938.28
2022-12-18T01:39:55.226Z,96941.47
2022-12-18T01:42:22.100Z,96946.38
2022-12-18T01:45:07.188Z,96947.44
2022-12-18T01:47:42.673Z,96956.75
2022-12-18T01:50:09.206Z,96950.34
2022-12-18T01:52:36.922Z,96953.53
2022-12-18T01:55:05.687Z,96955.72
2022-12-18T01:57:32.271Z,96960.41
2022-12-18T02:00:02.119Z,96967.75
2022-12-18T02:02:30.090Z,96967.66
2022-12-18T02:04:56.604Z,96970.25
2022-12-18T02:07:25.945Z,96970.63
2022-12-18T02:10:05.073Z,96977.25
2022-12-18T02:12:37.844Z,96975.34
2022-12-18T02:15:23.024Z,96976.09
2022-12-18T02:17:58.784Z,96982.22
2022-12-18T02:20:37.535Z,96988.03
2022-12-18T02:23:11.321Z,96986.81
2022-12-18T02:25:52.951Z,96985.13
2022-12-18T02:28:21.154Z,96994.38
2022-12-18T02:30:50.051Z,96997.72
2022-12-18T02:33:16.940Z,96994.50
2022-12-18T02:35:44.493Z,97008.00
2022-12-18T02:38:12.879Z,97006.34
2022-12-18T02:40:39.855Z,97006.56
2022-12-18T02:43:10.248Z,97008.31
2022-12-18T02:45:36.925Z,97009.44
2022-12-18T02:48:03.481Z,97013.75
2022-12-18T02:50:34.897Z,97010.97
2022-12-18T02:53:15.973Z,97027.16
2022-12-18T02:55:51.487Z,97029.03
2022-12-18T02:58:20.926Z,97033.75
2022-12-18T03:00:47.294Z,97035.19
2022-12-18T03:03:19.935Z,97031.78
2022-12-18T03:05:54.915Z,97038.59
2022-12-18T03:08:25.808Z,97042.16
2022-12-18T03:11:05.681Z,97057.81
2022-12-18T03:13:32.089Z,97052.06
2022-12-18T03:16:00.812Z,97055.56
2022-12-18T03:18:34.283Z,97050.69
2022-12-18T03:21:04.668Z,97052.84
2022-12-18T03:23:35.131Z,97050.97
2022-12-18T03:26:07.620Z,97062.19
2022-12-18T03:28:37.553Z,97070.03
2022-12-18T03:31:06.552Z,97073.59
2022-12-18T03:33:38.836Z,97070.44
2022-12-18T03:36:05.738Z,97080.34
2022-12-18T03:38:32.106Z,97077.19
2022-12-18T03:41:25.061Z,97078.78
2022-12-18T03:44:10.234Z,97079.72
2022-12-18T03:46:45.449Z,97078.03
2022-12-18T03:49:27.288Z,97080.72
2022-12-18T03:51:56.171Z,97088.78
2022-12-18T03:54:23.160Z,97100.06
2022-12-18T03:56:51.763Z,97100.56
2022-12-18T03:59:20.086Z,97093.25
2022-12-18T04:01:48.597Z,97102.31
2022-12-18T04:04:16.493Z,97108.06
2022-12-18T04:06:44.469Z,97118.56
2022-12-18T04:09:11.002Z,97117.13
2022-12-18T04:11:37.451Z,97125.41
2022-12-18T04:14:07.182Z,97128.19
2022-12-18T04:16:33.997Z,97123.75
2022-12-18T04:19:00.373Z,97133.09
2022-12-18T04:21:26.870Z,97137.41
2022-12-18T04:23:53.335Z,97139.03
2022-12-18T04:26:19.901Z,97137.09
2022-12-18T04:28:46.305Z,97132.31
2022-12-18T04:31:12.854Z,97144.94
2022-12-18T04:33:39.722Z,97151.03
2022-12-18T04:36:06.627Z,97155.28
2022-12-18T04:38:33.512Z,97155.84
2022-12-18T04:40:59.957Z,97150.84
2022-12-18T04:43:26.396Z,97158.69
2022-12-18T04:45:52.801Z,97171.91
2022-12-18T04:48:19.344Z,97172.06
2022-12-18T04:50:45.996Z,97175.94
2022-12-18T04:53:12.362Z,97174.34
2022-12-18T04:55:38.720Z,97181.28
2022-12-18T04:58:05.334Z,97191.16
2022-12-18T05:00:31.751Z,97189.13
2022-12-18T05:02:58.288Z,97192.03
2022-12-18T05:05:24.840Z,97197.97
2022-12-18T05:07:51.217Z,97198.63
2022-12-18T05:10:17.755Z,97202.63
2022-12-18T05:12:59.382Z,97199.97
2022-12-18T05:15:28.584Z,97208.47
2022-12-18T05:17:55.397Z,97213.03
2022-12-18T05:20:21.925Z,97216.56
2022-12-18T05:22:48.313Z,97221.22
2022-12-18T05:25:14.707Z,97228.50
2022-12-18T05:27:41.144Z,97233.84
2022-12-18T05:30:08.087Z,97239.03
2022-12-18T05:32:34.497Z,97240.84
2022-12-18T05:35:00.998Z,97240.28
2022-12-18T05:37:27.390Z,97245.53
2022-12-18T05:39:53.807Z,97242.50
2022-12-18T05:42:20.163Z,97246.69
2022-12-18T05:44:46.569Z,97242.19
2022-12-18T05:47:12.990Z,97249.69
2022-12-18T05:49:39.430Z,97250.66
2022-12-18T05:52:06.165Z,97263.00
2022-12-18T05:54:32.574Z,97254.84
2022-12-18T05:56:59.231Z,97261.84
2022-12-18T05:59:25.631Z,97268.84
2022-12-18T06:01:52.676Z,97269.94
2022-12-18T06:04:19.146Z,97273.38
2022-12-18T06:06:45.703Z,97273.19
2022-12-18T06:09:12.923Z,97284.34
2022-12-18T06:11:39.572Z,97286.72
2022-12-18T06:14:07.125Z,97301.63
2022-12-18T06:16:33.746Z,97288.94
2022-12-18T06:19:00.836Z,97295.13
2022-12-18T06:21:28.257Z,97304.13
2022-12-18T06:23:54.899Z,97306.91
2022-12-18T06:26:27.656Z,97310.72
2022-12-18T06:28:54.665Z,97310.72
2022-12-18T06:31:21.104Z,97305.19
2022-12-18T06:33:47.530Z,97311.31
2022-12-18T06:36:14.574Z,97312.53
2022-12-18T06:38:42.436Z,97321.94
2022-12-18T06:41:13.874Z,97330.25
2022-12-18T06:43:40.693Z,97330.75
2022-12-18T06:46:07.745Z,97325.56
2022-12-18T06:48:34.305Z,97330.28
2022-12-18T06:51:01.036Z,97336.38
2022-12-18T06:53:27.618Z,97339.97
2022-12-18T06:55:54.300Z,97345.88
2022-12-18T06:58:20.712Z,97339.06
2022-12-18T07:00:47.595Z,97360.41
2022-12-18T07:03:14.099Z,97351.72
2022-12-18T07:05:41.309Z,97364.91
2022-12-18T07:08:07.778Z,97374.06
2022-12-18T07:10:34.550Z,97377.63
2022-12-18T07:13:00.919Z,97373.13
2022-12-18T07:15:27.279Z,97378.38
2022-12-18T07:17:53.639Z,97384.59
2022-12-18T07:20:20.010Z,97383.72
2022-12-18T07:22:46.645Z,97388.56
2022-12-18T07:25:13.021Z,97397.31
2022-12-18T07:27:39.432Z,97398.28
2022-12-18T07:30:06.171Z,97408.63
2022-12-18T07:32:32.586Z,97412.44
2022-12-18T07:34:58.976Z,97419.03
2022-12-18T07:37:25.355Z,97416.53
2022-12-18T07:39:51.748Z,97418.28
2022-12-18T07:42:33.462Z,97418.19
2022-12-18T07:45:01.358Z,97435.56
2022-12-18T07:47:28.261Z,97433.88
2022-12-18T07:49:56.019Z,97434.34
2022-12-18T07:52:26.101Z,97440.41
2022-12-18T07:54:52.816Z,97433.72
2022-12-18T07:57:48.432Z,97446.03
2022-12-18T08:00:05.973Z,97449.84
2022-12-18T08:02:32.911Z,97446.03
2022-12-18T08:04:59.595Z,97446.09
2022-12-18T08:07:25.961Z,97454.00
2022-12-18T08:09:52.356Z,97457.53
2022-12-18T08:12:18.742Z,97453.03
2022-12-18T08:14:45.104Z,97451.97
2022-12-18T08:17:11.528Z,97456.31
2022-12-18T08:19:37.999Z,97462.53
2022-12-18T08:22:04.372Z,97461.00
2022-12-18T08:24:30.772Z,97470.66
2022-12-18T08:27:27.953Z,97463.50
2022-12-18T08:29:44.642Z,97465.03
2022-12-18T08:32:11.104Z,97456.53
2022-12-18T08:34:37.608Z,97460.03
2022-12-18T08:37:04.039Z,97462.44
2022-12-18T08:39:30.465Z,97458.06
2022-12-18T08:42:15.566Z,97463.50
2022-12-18T08:44:42.249Z,97463.75
2022-12-18T08:47:08.981Z,97464.66
2022-12-18T08:49:35.986Z,97467.16
2022-12-18T08:52:03.761Z,97471.34
2022-12-18T08:54:30.263Z,97466.31
2022-12-18T08:56:56.624Z,97475.91
2022-12-18T08:59:24.172Z,97465.88
2022-12-18T09:01:54.646Z,97473.06
2022-12-18T09:04:21.118Z,97474.00
2022-12-18T09:06:47.739Z,97476.59
2022-12-18T09:09:14.339Z,97481.91
2022-12-18T09:11:40.743Z,97476.91
2022-12-18T09:14:07.167Z,97484.34
2022-12-18T09:16:35.908Z,97479.94
2022-12-18T09:19:03.521Z,97476.28
2022-12-18T09:21:31.381Z,97472.94
2022-12-18T09:23:59.112Z,97479.75
2022-12-18T09:26:26.312Z,97472.94
2022-12-18T09:28:52.928Z,97483.97
2022-12-18T09:31:20.616Z,97481.13
2022-12-18T09:33:47.107Z,97486.03
2022-12-18T09:36:15.317Z,97486.69
2022-12-18T09:38:42.202Z,97482.88
2022-12-18T09:41:27.659Z,97485.88
2022-12-18T09:43:58.056Z,97484.50
2022-12-18T09:46:27.180Z,97474.75
2022-12-18T09:48:56.602Z,97479.47
2022-12-18T09:51:29.768Z,97481.72
2022-12-18T09:54:00.093Z,97478.00
2022-12-18T09:56:29.352Z,97470.06
2022-12-18T09:59:03.100Z,97474.25
2022-12-18T10:01:38.820Z,97472.34
2022-12-18T10:04:10.409Z,97473.94
2022-12-18T10:06:40.652Z,97471.19
2022-12-18T10:09:25.070Z,97466.78
2022-12-18T10:12:10.423Z,97470.13
2022-12-18T10:14:52.238Z,97467.28
2022-12-18T10:17:27.227Z,97476.66
2022-12-18T10:19:56.966Z,97474.75
2022-12-18T10:22:52.619Z,97476.31
2022-12-18T10:25:19.675Z,97471.66
2022-12-18T10:27:46.179Z,97473.16
2022-12-18T10:30:16.939Z,97474.59
2022-12-18T10:32:43.623Z,97475.03
2022-12-18T10:35:18.968Z,97473.88
2022-12-18T10:38:01.936Z,97478.03
2022-12-18T10:40:28.400Z,97478.69
2022-12-18T10:43:12.627Z,97470.44
2022-12-18T10:45:39.373Z,97471.03
2022-12-18T10:48:06.074Z,97468.16
2022-12-18T10:51:08.667Z,97471.16
2022-12-18T10:53:22.797Z,97464.81
2022-12-18T10:55:49.668Z,97476.03
2022-12-18T10:58:38.502Z,97479.50
2022-12-18T11:01:09.677Z,97479.19
2022-12-18T11:03:37.409Z,97473.66
2022-12-18T11:06:08.569Z,97467.31
2022-12-18T11:08:35.274Z,97468.75
2022-12-18T11:11:01.958Z,97462.50
2022-12-18T11:13:30.257Z,97463.75
2022-12-18T11:15:56.845Z,97463.16
2022-12-18T11:18:27.222Z,97451.50
2022-12-18T11:21:14.366Z,97459.69
2022-12-18T11:23:50.050Z,97451.59
2022-12-18T11:26:16.633Z,97450.78
2022-12-18T11:28:45.534Z,97443.31
2022-12-18T11:31:18.409Z,97441.91
2022-12-18T11:34:11.869Z,97446.50
2022-12-18T11:36:37.444Z,97450.53
2022-12-18T11:39:11.910Z,97450.78
2022-12-18T11:42:06.387Z,97453.00
2022-12-18T11:44:37.713Z,97447.41
2022-12-18T11:47:14.657Z,97449.72
2022-12-18T11:49:42.590Z,97446.03
2022-12-18T11:52:15.884Z,97449.19
2022-12-18T11:54:42.298Z,97455.28
2022-12-18T11:57:14.467Z,97451.78
2022-12-18T11:59:50.579Z,97455.03
2022-12-18T12:02:35.583Z,97457.38
2022-12-18T12:05:05.087Z,97451.00
2022-12-18T12:07:39.737Z,97454.31
2022-12-18T12:10:06.144Z,97455.91
2022-12-18T12:12:48.677Z,97462.41
2022-12-18T12:15:36.830Z,97458.88
2022-12-18T12:18:16.377Z,97469.25
2022-12-18T12:21:01.766Z,97471.19
2022-12-18T12:23:34.927Z,97472.22
2022-12-18T12:26:07.022Z,97467.03
2022-12-18T12:28:51.893Z,97463.97
2022-12-18T12:31:37.016Z,97473.16
2022-12-18T12:34:17.528Z,97474.75
2022-12-18T12:37:07.269Z,97471.13
2022-12-18T12:39:36.415Z,97470.13
2022-12-18T12:42:23.816Z,97472.97
2022-12-18T12:44:56.399Z,97473.91
2022-12-18T12:47:34.731Z,97486.31
2022-12-18T12:50:03.601Z,97482.22
2022-12-18T12:52:36.431Z,97487.41
2022-12-18T12:55:07.972Z,97484.63
2022-12-18T12:57:42.958Z,97493.72
2022-12-18T13:00:17.525Z,97500.41
2022-12-18T13:02:46.977Z,97496.88
2022-12-18T13:05:43.166Z,97507.09
2022-12-18T13:08:22.622Z,97510.41
2022-12-18T13:10:50.669Z,97511.44
2022-12-18T13:13:22.807Z,97514.88
2022-12-18T13:16:04.473Z,97523.13
2022-12-18T13:18:31.054Z,97523.56
2022-12-18T13:21:01.620Z,97522.09
2022-12-18T13:23:32.080Z,97518.56
2022-12-18T13:26:07.641Z,97532.63
2022-12-18T13:28:37.275Z,97524.94
2022-12-18T13:31:03.960Z,97549.78
2022-12-18T13:33:30.355Z,97550.78
2022-12-18T13:36:03.137Z,97550.34
2022-12-18T13:38:32.480Z,97546.50
2022-12-18T13:41:02.237Z,97571.16
2022-12-18T13:43:39.939Z,97558.75
2022-12-18T13:46:25.633Z,97565.31
2022-12-18T13:48:52.622Z,97566.25
2022-12-18T13:51:20.637Z,97567.25
2022-12-18T13:53:52.967Z,97569.13
2022-12-18T13:56:22.362Z,97567.44
2022-12-18T13:59:08.116Z,97565.69
2022-12-18T14:01:34.630Z,97571.06
2022-12-18T14:04:19.312Z,97570.03
2022-12-18T14:06:46.734Z,97573.22
2022-12-18T14:09:21.565Z,97578.56
2022-12-18T14:11:49.434Z,97570.78
2022-12-18T14:14:17.548Z,97575.41
2022-12-18T14:16:44.013Z,97582.03
2022-12-18T14:19:15.898Z,97577.38
2022-12-18T14:21:46.470Z,97574.28
2022-12-18T14:24:16.682Z,97584.13
2022-12-18T14:26:45.586Z,97588.16
2022-12-18T14:29:24.362Z,97588.69
2022-12-18T14:32:05.971Z,97586.00
2022-12-18T14:34:32.949Z,97590.75
2022-12-18T14:36:59.575Z,97590.16
2022-12-18T14:39:26.499Z,97603.25
2022-12-18T14:41:54.148Z,97603.34
2022-12-18T14:44:22.333Z,97601.00
2022-12-18T14:46:50.515Z,97601.19
2022-12-18T14:49:25.723Z,97608.19
2022-12-18T14:51:54.106Z,97611.53
2022-12-18T14:54:21.410Z,97616.84
2022-12-18T14:56:52.811Z,97612.59
2022-12-18T14:59:24.762Z,97617.03
2022-12-18T15:02:00.563Z,97616.84
2022-12-18T15:04:40.217Z,97624.78
2022-12-18T15:07:19.301Z,97622.97
2022-12-18T15:10:01.444Z,97627.38
2022-12-18T15:12:42.028Z,97631.19
2022-12-18T15:15:28.263Z,97636.88
2022-12-18T15:17:58.758Z,97635.50
2022-12-18T15:20:25.132Z,97641.31
2022-12-18T15:22:51.579Z,97636.44
2022-12-18T15:25:28.653Z,97636.56
2022-12-18T15:27:55.130Z,97648.00
2022-12-18T15:30:22.771Z,97631.31
2022-12-18T15:32:50.028Z,97632.69
2022-12-18T15:35:21.300Z,97635.22
2022-12-18T15:37:48.157Z,97640.69
2022-12-18T15:40:16.103Z,97635.00
2022-12-18T15:43:03.172Z,97641.09
2022-12-18T15:45:29.714Z,97644.78
2022-12-18T15:47:56.127Z,97639.13
2022-12-18T15:50:22.840Z,97650.47
2022-12-18T15:52:50.896Z,97642.78
2022-12-18T15:55:37.724Z,97655.88
2022-12-18T15:58:05.348Z,97662.94
2022-12-18T16:00:32.625Z,97668.22
2022-12-18T16:02:59.223Z,97658.03
2022-12-18T16:05:27.154Z,97666.78
2022-12-18T16:07:53.702Z,97672.78
2022-12-18T16:10:20.282Z,97671.34
2022-12-18T16:12:46.934Z,97675.88
2022-12-18T16:15:15.302Z,97682.09
2022-12-18T16:17:44.238Z,97684.06
2022-12-18T16:20:30.531Z,97677.22
2022-12-18T16:22:56.989Z,97686.78
2022-12-18T16:25:27.379Z,97693.41
2022-12-18T16:27:56.052Z,97695.53
2022-12-18T16:30:23.787Z,97700.84
2022-12-18T16:32:50.637Z,97697.63
2022-12-18T16:35:17.422Z,97699.34
2022-12-18T16:37:44.403Z,97702.31
2022-12-18T16:40:12.246Z,97700.19
2022-12-18T16:42:39.686Z,97697.03
2022-12-18T16:45:07.144Z,97697.16
2022-12-18T16:47:33.703Z,97695.88
2022-12-18T16:50:00.123Z,97687.50
2022-12-18T16:52:26.671Z,97690.41
2022-12-18T16:54:53.105Z,97697.66
2022-12-18T16:57:21.516Z,97703.91
2022-12-18T16:59:51.144Z,97723.97
2022-12-18T17:02:23.423Z,97722.53
2022-12-18T17:04:50.593Z,97713.09
2022-12-18T17:07:16.989Z,97724.63
2022-12-18T17:09:43.361Z,97729.41
2022-12-18T17:12:09.751Z,97731.50
2022-12-18T17:14:36.451Z,97725.09
2022-12-18T17:19:49.818Z,97720.78
2022-12-18T17:22:16.293Z,97726.06
2022-12-18T17:24:42.848Z,97730.66
2022-12-18T17:27:09.214Z,97737.84
2022-12-18T17:29:35.722Z,97735.59
2022-12-18T17:32:02.159Z,97735.59
2022-12-18T17:34:28.669Z,97740.94
2022-12-18T17:36:56.397Z,97739.53
2022-12-18T17:39:22.806Z,97740.59
2022-12-18T17:41:49.766Z,97744.28
2022-12-18T17:44:16.639Z,97736.00
2022-12-18T17:46:43.658Z,97743.91
2022-12-18T17:49:10.440Z,97756.16
2022-12-18T17:51:36.866Z,97753.03
2022-12-18T17:54:03.315Z,97754.97
2022-12-18T17:56:29.807Z,97753.41
2022-12-18T17:58:56.205Z,97758.66
2022-12-18T18:01:24.271Z,97765.50
2022-12-18T18:03:53.521Z,97768.00
2022-12-18T18:06:20.124Z,97766.38
2022-12-18T18:08:46.514Z,97753.56
2022-12-18T18:11:33.502Z,97768.19
2022-12-18T18:14:03.015Z,97759.19
2022-12-18T18:16:29.407Z,97759.41
2022-12-18T18:19:03.280Z,97752.47
2022-12-18T18:21:30.022Z,97750.03
2022-12-18T18:23:59.023Z,97737.97
2022-12-18T18:26:27.103Z,97735.69
2022-12-18T18:28:55.590Z,97731.94
2022-12-18T18:31:25.163Z,97732.16
2022-12-18T18:33:51.894Z,97720.50
2022-12-18T18:36:18.316Z,97721.56
2022-12-18T18:38:48.389Z,97726.91
2022-12-18T18:41:15.659Z,97724.59
2022-12-18T18:43:42.461Z,97717.97
2022-12-18T18:46:11.368Z,97733.66
2022-12-18T18:48:37.950Z,97740.81
2022-12-18T18:51:08.998Z,97740.19
2022-12-18T18:53:41.498Z,97729.31
2022-12-18T18:58:55.953Z,97743.47
2022-12-18T19:01:23.062Z,97747.84
2022-12-18T19:03:49.669Z,97752.38
2022-12-18T19:06:17.623Z,97754.25
2022-12-18T19:08:44.555Z,97755.19
2022-12-18T19:11:36.068Z,97757.66
2022-12-18T19:14:04.951Z,97768.44
2022-12-18T19:16:32.047Z,97778.47
2022-12-18T19:19:01.797Z,97778.47
2022-12-18T19:21:28.928Z,97769.78
2022-12-18T19:23:57.894Z,97787.16
2022-12-18T19:26:28.034Z,97779.66
2022-12-18T19:28:54.784Z,97766.16
2022-12-18T19:31:25.402Z,97775.47
2022-12-18T19:33:53.517Z,97762.69
2022-12-18T19:36:21.673Z,97767.28
2022-12-18T19:38:48.735Z,97773.44
2022-12-18T19:41:15.622Z,97778.84
2022-12-18T19:43:42.442Z,97784.66
2022-12-18T19:46:10.939Z,97792.34
2022-12-18T19:48:37.454Z,97787.22
2022-12-18T19:51:04.738Z,97784.94
2022-12-18T19:53:31.126Z,97791.25
2022-12-18T19:55:57.573Z,97792.22
2022-12-18T19:58:23.963Z,97787.09
2022-12-18T20:00:51.313Z,97790.56
2022-12-18T20:03:27.140Z,97788.72
2022-12-18T20:06:07.553Z,97785.97
2022-12-18T20:08:33.908Z,97791.88
2022-12-18T20:11:00.298Z,97795.69
2022-12-18T20:13:26.647Z,97798.63
2022-12-18T20:15:54.209Z,97802.84
2022-12-18T20:18:20.580Z,97806.28
2022-12-18T20:20:47.235Z,97806.00
2022-12-18T20:23:15.683Z,97802.66
2022-12-18T20:25:42.090Z,97796.16
2022-12-18T20:28:08.485Z,97800.72
2022-12-18T20:30:34.882Z,97806.72
2022-12-18T20:33:01.281Z,97812.59
2022-12-18T20:35:28.786Z,97812.53
2022-12-18T20:37:55.757Z,97809.88
2022-12-18T20:40:23.309Z,97822.72
2022-12-18T20:42:49.727Z,97831.63
2022-12-18T20:45:16.363Z,97836.31
2022-12-18T20:47:43.945Z,97829.72
2022-12-18T20:50:10.490Z,97824.75
2022-12-18T20:52:36.910Z,97825.72
2022-12-18T20:55:04.204Z,97834.34
2022-12-18T20:57:30.670Z,97844.59
2022-12-18T20:59:57.088Z,97843.53
2022-12-18T21:02:23.552Z,97856.47
2022-12-18T21:04:50.052Z,97849.75
2022-12-18T21:07:16.664Z,97852.34
2022-12-18T21:09:43.033Z,97852.41
2022-12-18T21:12:33.377Z,97842.88
2022-12-18T21:15:04.518Z,97846.47
2022-12-18T21:17:31.128Z,97853.50
2022-12-18T21:20:00.946Z,97857.84
2022-12-18T21:22:28.320Z,97844.13
2022-12-18T21:24:54.725Z,97841.50
2022-12-18T21:27:21.084Z,97841.34
2022-12-18T21:29:47.501Z,97843.03
2022-12-18T21:32:14.194Z,97839.56
2022-12-18T21:34:46.016Z,97848.31
2022-12-18T21:37:14.326Z,97851.84
2022-12-18T21:39:40.703Z,97832.25
2022-12-18T21:42:25.986Z,97826.97
2022-12-18T21:44:52.402Z,97830.34
2022-12-18T21:47:22.655Z,97826.94
2022-12-18T21:49:50.546Z,97830.34
2022-12-18T21:52:16.987Z,97819.56
2022-12-18T21:54:43.377Z,97813.13
2022-12-18T21:57:10.992Z,97812.22
2022-12-18T21:59:38.477Z,97808.00
2022-12-18T22:02:11.070Z,97807.47
2022-12-18T22:04:37.594Z,97813.75
2022-12-18T22:07:05.170Z,97801.09
2022-12-18T22:09:31.815Z,97815.63
2022-12-18T22:11:58.595Z,97801.88
2022-12-18T22:14:25.093Z,97806.06
2022-12-18T22:16:52.453Z,97811.88
2022-12-18T22:19:19.894Z,97804.41
2022-12-18T22:21:47.414Z,97800.41
2022-12-18T22:24:15.211Z,97811.50
2022-12-18T22:26:41.630Z,97811.50
2022-12-18T22:29:29.944Z,97805.41
2022-12-18T22:31:57.915Z,97811.09
2022-12-18T22:34:24.365Z,97804.22
2022-12-18T22:36:50.861Z,97805.88
2022-12-18T22:39:18.756Z,97794.94
2022-12-18T22:41:45.777Z,97802.00
2022-12-18T22:44:12.239Z,97802.84
2022-12-18T22:46:46.733Z,97809.59
2022-12-18T22:49:17.525Z,97804.38
2022-12-18T22:51:44.330Z,97809.53
2022-12-18T22:54:10.877Z,97804.66
2022-12-18T22:56:37.345Z,97804.75
2022-12-18T22:59:04.207Z,97806.53
2022-12-18T23:01:31.296Z,97798.09
2022-12-18T23:03:59.263Z,97803.16
2022-12-18T23:06:26.341Z,97797.19
2022-12-18T23:08:56.189Z,97798.13
2022-12-18T23:11:22.659Z,97788.13
2022-12-18T23:13:49.075Z,97793.34
2022-12-18T23:16:17.139Z,97797.81
2022-12-18T23:18:43.693Z,97801.19
2022-12-18T23:21:14.463Z,97795.16
2022-12-18T23:23:42.100Z,97791.63
2022-12-18T23:26:13.438Z,97808.78
2022-12-18T23:28:40.316Z,97804.69
2022-12-18T23:31:08.457Z,97804.00
2022-12-18T23:33:34.889Z,97807.38
2022-12-18T23:36:01.875Z,97795.47
2022-12-18T23:38:28.996Z,97805.72
2022-12-18T23:40:56.520Z,97804.75
2022-12-18T23:43:23.736Z,97799.53
2022-12-18T23:45:55.509Z,97803.03
2022-12-18T23:48:22.563Z,97800.44
2022-12-18T23:50:48.953Z,97800.41
2022-12-18T23:53:15.381Z,97793.53
2022-12-18T23:55:43.161Z,97802.97
2022-12-18T23:58:19.649Z,97804.69
